Time;durP1;ratioP1;P1;durP2;ratioP2;P2;SDS_P1;SDS_P2;PMS_P1;PMS_P2;Temp;Humidity;BMP_temperature;BMP_pressure;BME280_temperature;BME280_humidity;BME280_pressure;Samples;Min_cycle;Max_cycle;Signal;HPM_P1;HPM_P2
2021/03/01 00:00:23;;;;;;;12.28;8.50;;;;;;;1.69;79.57;100080.02;1816287;78;21146;-86
2021/03/01 00:02:52;;;;;;;11.20;8.33;;;;;;;1.66;79.66;100094.43;1811414;77;21777;-84
2021/03/01 00:05:20;;;;;;;11.30;8.05;;;;;;;1.62;79.71;100084.99;1798773;77;21209;-83
2021/03/01 00:07:49;;;;;;;6.72;4.87;;;;;;;1.53;79.77;100099.59;1784984;78;21514;-83
2021/03/01 00:10:18;;;;;;;10.13;7.30;;;;;;;1.57;79.40;100093.39;1796647;79;21186;-84
2021/03/01 00:12:47;;;;;;;8.53;7.37;;;;;;;1.60;79.25;100089.41;1745009;81;21644;-84
2021/03/01 00:15:19;;;;;;;8.58;5.28;;;;;;;1.53;79.38;100094.37;1754867;80;21194;-84
2021/03/01 00:17:46;;;;;;;8.45;6.05;;;;;;;1.43;79.49;100107.67;1813150;78;21170;-84
2021/03/01 00:20:16;;;;;;;7.25;5.25;;;;;;;1.53;79.31;100097.83;1802406;79;21146;-83
2021/03/01 00:22:44;;;;;;;8.90;5.47;;;;;;;1.54;79.25;100115.19;1814976;79;21202;-84
2021/03/01 00:25:13;;;;;;;4.87;3.80;;;;;;;1.46;79.50;100103.66;1790971;79;21206;-84
2021/03/01 00:27:41;;;;;;;7.40;5.83;;;;;;;1.44;79.41;100105.91;1788188;79;21162;-85
2021/03/01 00:30:10;;;;;;;8.60;6.90;;;;;;;1.53;79.13;100099.13;1784587;79;21336;-84
2021/03/01 00:32:37;;;;;;;4.67;3.95;;;;;;;1.50;79.08;100091.41;1762010;80;21241;-84
2021/03/01 00:35:10;;;;;;;5.55;4.05;;;;;;;1.38;79.36;100106.94;1765590;80;21213;-84
2021/03/01 00:37:39;;;;;;;4.10;3.67;;;;;;;1.40;79.43;100106.44;1782624;80;21189;-84
2021/03/01 00:40:08;;;;;;;5.90;3.98;;;;;;;1.53;79.05;100113.93;1765477;80;21152;-85
2021/03/01 00:42:35;;;;;;;5.55;4.30;;;;;;;1.41;79.35;100113.82;1765240;80;21182;-84
2021/03/01 00:45:06;;;;;;;5.03;4.00;;;;;;;1.35;79.55;100125.24;1765471;80;22252;-84
2021/03/01 00:47:33;;;;;;;6.97;4.20;;;;;;;1.45;79.41;100124.56;1772020;80;21587;-85
2021/03/01 00:50:01;;;;;;;6.22;4.72;;;;;;;1.44;79.41;100115.88;1773190;80;21176;-84
2021/03/01 00:52:29;;;;;;;6.03;4.30;;;;;;;1.38;79.63;100120.40;1772667;80;21201;-84
2021/03/01 00:54:59;;;;;;;5.60;4.08;;;;;;;1.35;79.76;100123.94;1787498;80;21161;-84
2021/03/01 00:57:28;;;;;;;4.90;3.92;;;;;;;1.50;79.49;100127.02;1775647;80;21217;-84
2021/03/01 00:59:55;;;;;;;10.90;6.17;;;;;;;1.50;79.49;100129.63;1774408;80;21209;-85
2021/03/01 01:02:23;;;;;;;7.62;5.05;;;;;;;1.43;79.70;100135.03;1765233;80;21178;-84
2021/03/01 01:04:54;;;;;;;6.22;4.42;;;;;;;1.39;79.80;100143.81;1765319;80;21150;-82
2021/03/01 01:07:23;;;;;;;8.33;5.67;;;;;;;1.51;79.45;100154.38;1785166;80;21217;-84
2021/03/01 01:09:51;;;;;;;16.20;11.35;;;;;;;1.55;79.36;100162.95;1783201;80;21767;-84
2021/03/01 01:12:18;;;;;;;9.58;6.60;;;;;;;1.46;79.59;100177.95;1779476;80;21765;-84
2021/03/01 01:14:46;;;;;;;6.28;4.37;;;;;;;1.37;79.82;100187.75;1766483;80;21222;-84
2021/03/01 01:17:14;;;;;;;4.28;3.27;;;;;;;1.36;79.56;100178.23;1775677;80;21154;-84
2021/03/01 01:19:42;;;;;;;4.97;4.35;;;;;;;1.44;79.06;100186.25;1767433;80;21237;-83
2021/03/01 01:22:10;;;;;;;7.08;4.97;;;;;;;1.37;79.17;100197.73;1785318;80;21198;-83
2021/03/01 01:24:37;;;;;;;5.33;3.83;;;;;;;1.28;79.37;100204.03;1770934;80;21218;-82
2021/03/01 01:27:05;;;;;;;5.30;4.80;;;;;;;1.30;79.40;100210.50;1771648;80;21160;-84
2021/03/01 01:29:32;;;;;;;6.05;4.70;;;;;;;1.40;79.15;100213.28;1776966;80;21180;-85
2021/03/01 01:32:00;;;;;;;4.97;4.00;;;;;;;1.35;79.32;100217.76;1767421;80;21194;-84
2021/03/01 01:34:27;;;;;;;4.87;4.12;;;;;;;1.27;79.48;100220.55;1781356;80;21194;-84
2021/03/01 01:36:54;;;;;;;5.53;4.90;;;;;;;1.37;79.25;100219.89;1776460;80;21173;-84
2021/03/01 01:39:22;;;;;;;8.43;4.50;;;;;;;1.30;79.50;100236.14;1781043;80;21614;-84
2021/03/01 01:41:49;;;;;;;5.45;4.25;;;;;;;1.19;79.91;100235.95;1775345;78;21142;-84
2021/03/01 01:44:16;;;;;;;5.67;4.92;;;;;;;1.24;79.87;100244.52;1803510;78;21192;-84
2021/03/01 01:46:44;;;;;;;8.13;5.10;;;;;;;1.34;79.71;100233.44;1805654;78;21314;-83
2021/03/01 01:49:12;;;;;;;6.28;4.78;;;;;;;1.26;79.91;100245.35;1749277;80;21629;-84
2021/03/01 01:51:42;;;;;;;6.00;4.45;;;;;;;1.17;80.23;100251.63;1777436;78;21178;-84
2021/03/01 01:54:10;;;;;;;5.35;4.30;;;;;;;1.28;80.07;100250.94;1811969;78;21762;-84
2021/03/01 01:56:40;;;;;;;4.90;4.03;;;;;;;1.36;79.77;100257.72;1751205;80;21177;-85
2021/03/01 01:59:07;;;;;;;5.17;4.25;;;;;;;1.28;79.79;100243.12;1770631;78;21757;-84
2021/03/01 02:01:36;;;;;;;4.17;3.58;;;;;;;1.21;79.97;100247.22;1805038;77;21586;-84
2021/03/01 02:04:28;;;;;;;4.83;4.03;;;;;;;1.25;79.72;100247.12;1805108;77;21201;-84
2021/03/01 02:59:53;;;;;;;8.30;5.20;;;;;;;1.20;79.77;100320.59;1740070;80;21748;-83
2021/03/01 03:02:20;;;;;;;7.15;5.20;;;;;;;1.37;79.20;100318.05;1740129;80;21219;-83
2021/03/01 03:04:48;;;;;;;7.60;5.83;;;;;;;1.34;79.15;100326.80;1674180;80;21150;-84
2021/03/01 03:07:15;;;;;;;8.15;6.03;;;;;;;1.27;79.33;100330.00;1745143;80;21200;-83
2021/03/01 03:09:45;;;;;;;9.23;6.30;;;;;;;1.21;79.49;100330.59;1752038;80;21599;-83
2021/03/01 03:12:14;;;;;;;8.05;5.45;;;;;;;1.25;79.51;100328.32;1748980;81;21153;-85
2021/03/01 03:14:42;;;;;;;9.00;5.87;;;;;;;1.41;79.09;100339.27;1753999;82;21182;-86
2021/03/01 03:17:11;;;;;;;7.05;5.28;;;;;;;1.34;79.05;100339.83;1744878;80;21297;-85
2021/03/01 03:19:42;;;;;;;8.18;5.75;;;;;;;1.24;79.21;100347.02;1717115;81;21692;-85
2021/03/01 03:22:10;;;;;;;8.45;5.67;;;;;;;1.16;79.34;100348.92;1746647;81;21237;-85
2021/03/01 03:24:39;;;;;;;8.78;5.70;;;;;;;1.27;79.13;100359.13;1749367;80;21618;-85
2021/03/01 03:27:06;;;;;;;9.25;6.12;;;;;;;1.37;78.77;100363.23;1815984;78;21600;-84
2021/03/01 03:29:33;;;;;;;9.95;6.95;;;;;;;1.31;78.79;100365.52;1747037;81;21226;-85
2021/03/01 03:32:03;;;;;;;9.08;6.17;;;;;;;1.26;78.94;100360.00;1815077;78;21170;-85
2021/03/01 03:34:32;;;;;;;9.50;6.22;;;;;;;1.26;79.02;100365.22;1785504;77;21191;-85
2021/03/01 03:37:08;;;;;;;9.40;6.50;;;;;;;1.39;78.69;100374.92;1749456;81;21203;-85
2021/03/01 03:53:11;;;;;;;11.95;7.60;;;;;;;1.28;79.35;100377.78;1719708;81;21712;-81
2021/03/01 04:06:19;;;;;;;13.38;8.58;;;;;;;1.28;78.71;100385.14;1789335;80;22602;-82
2021/03/01 04:08:50;;;;;;;12.07;7.90;;;;;;;1.12;78.91;100385.05;1826920;78;21603;-82
2021/03/01 04:11:24;;;;;;;13.68;8.90;;;;;;;1.10;79.03;100385.09;1794370;80;21636;-82
2021/03/01 04:13:53;;;;;;;14.05;9.28;;;;;;;1.28;78.66;100388.20;1766111;80;21173;-81
2021/03/01 04:16:22;;;;;;;13.78;8.48;;;;;;;1.29;78.53;100382.08;1794650;80;21157;-82
2021/03/01 04:18:53;;;;;;;10.88;7.62;;;;;;;1.22;78.67;100389.17;1794300;80;21165;-81
2021/03/01 04:21:21;;;;;;;10.88;7.40;;;;;;;1.12;78.79;100393.71;1795115;80;21138;-81
2021/03/01 04:23:49;;;;;;;7.47;5.65;;;;;;;1.08;78.90;100393.37;1820530;79;21143;-81
2021/03/01 04:26:17;;;;;;;7.42;5.70;;;;;;;1.28;78.40;100398.62;1820346;79;21163;-81
2021/03/01 04:28:44;;;;;;;7.67;5.55;;;;;;;1.36;78.16;100395.39;1820155;79;21170;-81
2021/03/01 04:31:12;;;;;;;9.15;6.53;;;;;;;1.35;78.29;100405.86;1820453;79;21171;-81
2021/03/01 04:33:39;;;;;;;11.08;7.70;;;;;;;1.30;78.38;100404.22;1820185;79;21147;-82
2021/03/01 04:36:08;;;;;;;10.68;7.42;;;;;;;1.25;78.41;100414.31;1796808;80;21142;-81
2021/03/01 04:38:36;;;;;;;11.55;7.40;;;;;;;1.34;78.24;100401.08;1795182;80;21194;-81
2021/03/01 04:41:04;;;;;;;12.10;7.70;;;;;;;1.43;78.09;100403.50;1820259;79;21163;-83
2021/03/01 04:43:35;;;;;;;10.05;8.18;;;;;;;1.40;78.27;100407.46;1779292;80;21190;-84
2021/03/01 04:46:03;;;;;;;10.85;8.35;;;;;;;1.36;78.39;100413.64;1820562;79;21525;-84
2021/03/01 04:48:31;;;;;;;8.78;6.78;;;;;;;1.36;78.48;100416.70;1796895;80;21139;-83
2021/03/01 04:50:58;;;;;;;11.93;8.43;;;;;;;1.46;78.22;100412.55;1820536;79;21187;-84
2021/03/01 04:53:28;;;;;;;11.97;8.53;;;;;;;1.63;77.72;100415.22;1796752;80;21174;-86
2021/03/01 04:55:57;;;;;;;13.43;9.10;;;;;;;1.59;77.79;100415.73;1795257;80;21103;-85
2021/03/01 04:58:24;;;;;;;14.45;9.05;;;;;;;1.53;77.75;100426.75;1820412;79;21221;-85
2021/03/01 05:00:54;;;;;;;13.43;8.73;;;;;;;1.46;77.85;100433.39;1796772;80;21134;-86
2021/03/01 05:03:23;;;;;;;19.45;13.30;;;;;;;1.44;77.85;100440.37;1820645;79;21532;-83
2021/03/01 05:05:52;;;;;;;18.87;13.30;;;;;;;1.56;77.59;100449.70;1796790;80;21599;-85
2021/03/01 05:08:19;;;;;;;18.82;12.65;;;;;;;1.52;77.73;100455.01;1796749;79;21180;-86
2021/03/01 05:10:49;;;;;;;16.27;10.53;;;;;;;1.45;77.92;100456.44;1829029;78;21599;-85
2021/03/01 05:13:16;;;;;;;12.40;9.13;;;;;;;1.39;78.02;100461.77;1824316;79;21680;-86
2021/03/01 05:15:44;;;;;;;14.73;10.38;;;;;;;1.38;78.00;100471.81;1806405;79;21146;-85
2021/03/01 05:18:13;;;;;;;13.22;9.03;;;;;;;1.50;77.74;100480.23;1790783;80;21128;-87
2021/03/01 05:20:40;;;;;;;12.18;8.65;;;;;;;1.50;77.81;100484.15;1792541;79;21203;-86
2021/03/01 05:23:09;;;;;;;13.15;9.10;;;;;;;1.44;78.02;100483.39;1787936;80;21137;-88
2021/03/01 05:25:36;;;;;;;17.12;9.75;;;;;;;1.37;78.05;100492.24;1787819;80;21208;-88
2021/03/01 05:28:05;;;;;;;13.25;8.83;;;;;;;1.41;78.03;100501.70;1787727;80;21145;-85
2021/03/01 05:30:32;;;;;;;11.80;8.75;;;;;;;1.56;77.58;100497.94;1788136;80;21143;-86
2021/03/01 05:33:00;;;;;;;12.53;8.25;;;;;;;1.53;77.50;100500.59;1790613;80;21277;-85
2021/03/01 05:35:28;;;;;;;14.13;9.70;;;;;;;1.44;77.61;100505.55;1792990;79;21155;-85
2021/03/01 05:37:56;;;;;;;13.15;9.05;;;;;;;1.35;77.73;100497.08;1793107;80;21147;-85
2021/03/01 05:40:24;;;;;;;11.75;7.60;;;;;;;1.37;77.80;100496.16;1791742;80;21135;-84
2021/03/01 05:42:51;;;;;;;12.13;7.85;;;;;;;1.53;77.46;100512.78;1795933;79;21178;-84
2021/03/01 05:45:18;;;;;;;12.40;8.25;;;;;;;1.50;77.53;100511.52;1795217;79;21147;-84
2021/03/01 05:47:46;;;;;;;11.85;7.90;;;;;;;1.39;77.62;100526.94;1798943;80;21135;-86
2021/03/01 05:50:14;;;;;;;10.60;8.05;;;;;;;1.30;77.81;100524.52;1768667;80;21174;-88
2021/03/01 05:52:45;;;;;;;14.10;9.70;;;;;;;1.34;77.76;100532.69;1780547;80;21110;-89
2021/03/01 05:55:13;;;;;;;12.63;9.00;;;;;;;1.50;77.44;100529.77;1780161;80;21532;-88
2021/03/01 05:57:40;;;;;;;16.30;11.93;;;;;;;1.49;77.54;100540.66;1765674;80;21166;-86
2021/03/01 06:00:09;;;;;;;17.60;10.80;;;;;;;1.43;77.67;100545.56;1786601;79;21151;-85
2021/03/01 06:02:37;;;;;;;16.00;10.13;;;;;;;1.37;77.77;100557.41;1784079;80;21171;-85
2021/03/01 06:05:07;;;;;;;11.60;8.35;;;;;;;1.51;77.57;100552.34;1784748;80;21246;-86
2021/03/01 06:07:35;;;;;;;15.45;11.30;;;;;;;1.58;77.30;100559.17;1805702;78;21595;-87
2021/03/01 06:10:05;;;;;;;15.23;10.95;;;;;;;1.50;77.53;100568.45;1771626;80;21632;-86
2021/03/01 06:12:32;;;;;;;14.13;8.23;;;;;;;1.43;77.86;100569.44;1752651;81;21596;-85
2021/03/01 06:15:00;;;;;;;12.23;9.30;;;;;;;1.34;78.20;100584.81;1791245;80;21198;-87
2021/03/01 06:17:27;;;;;;;12.50;8.53;;;;;;;1.42;78.20;100586.84;1777796;80;21177;-85
2021/03/01 06:19:57;;;;;;;12.05;7.95;;;;;;;1.42;78.14;100586.84;1796792;80;21165;-84
2021/03/01 06:22:42;;;;;;;14.23;9.70;;;;;;;1.32;78.44;100594.42;1766092;80;21182;-87
2021/03/01 06:49:16;;;;;;;15.23;9.33;;;;;;;1.11;80.29;100648.64;1762692;77;21752;-85
2021/03/01 06:51:44;;;;;;;14.87;9.60;;;;;;;1.28;79.96;100652.70;1734324;81;21218;-85
2021/03/01 06:54:23;;;;;;;16.55;10.63;;;;;;;1.26;80.02;100657.07;1736711;81;21560;-81
2021/03/01 06:56:51;;;;;;;10.93;8.00;;;;;;;1.23;80.20;100656.69;1701963;83;21166;-84
2021/03/01 06:59:19;;;;;;;11.18;8.00;;;;;;;1.34;80.06;100659.09;1724078;83;21209;-84
2021/03/01 07:01:53;;;;;;;11.85;7.75;;;;;;;1.54;79.50;100667.02;1730939;81;21213;-86
2021/03/01 07:04:26;;;;;;;11.63;7.85;;;;;;;1.55;79.38;100662.19;1740105;81;21640;-87
2021/03/01 07:06:57;;;;;;;11.73;7.85;;;;;;;1.49;79.28;100665.78;1750838;81;21592;-83
2021/03/01 07:09:42;;;;;;;11.85;7.50;;;;;;;1.47;79.36;100677.55;1777887;79;23122;-85
2021/03/01 07:12:10;;;;;;;11.78;8.43;;;;;;;1.60;78.96;100674.27;1708269;82;21707;-84
2021/03/01 07:14:38;;;;;;;11.93;8.20;;;;;;;1.64;78.83;100667.26;1750380;82;21552;-86
2021/03/01 07:17:05;;;;;;;10.65;7.55;;;;;;;1.60;78.93;100682.55;1727008;82;21279;-80
2021/03/01 07:19:34;;;;;;;11.25;8.08;;;;;;;1.54;78.90;100677.45;1723247;83;21162;-81
2021/03/01 07:22:04;;;;;;;13.20;8.65;;;;;;;1.58;78.67;100685.16;1708693;83;21151;-82
2021/03/01 07:24:32;;;;;;;14.95;10.13;;;;;;;1.66;78.54;100688.09;1693518;83;21230;-82
2021/03/01 07:27:02;;;;;;;14.55;9.28;;;;;;;1.61;78.77;100690.34;1692147;83;21176;-82
2021/03/01 07:29:39;;;;;;;14.68;8.40;;;;;;;1.56;78.92;100685.66;1695302;82;21218;-82
2021/03/01 07:32:09;;;;;;;13.05;8.23;;;;;;;1.64;78.84;100690.73;1690888;85;21285;-82
2021/03/01 07:34:37;;;;;;;13.05;8.68;;;;;;;1.78;78.50;100682.65;1686510;83;21609;-82
2021/03/01 08:11:47;;;;;;;11.38;8.28;;;;;;;2.66;74.49;100709.56;1702336;79;21193;-87
2021/03/01 08:14:54;;;;;;;12.33;8.50;;;;;;;2.49;74.55;100721.66;1700719;82;21211;-84
2021/03/01 08:41:53;;;;;;;10.23;7.47;;;;;;;2.05;75.85;100740.41;1716832;77;21748;-79
2021/03/01 08:44:22;;;;;;;15.80;10.68;;;;;;;2.26;75.27;100748.24;1694554;84;21231;-79
2021/03/01 08:47:07;;;;;;;10.43;8.10;;;;;;;2.27;75.30;100742.14;1711754;83;21141;-81
2021/03/01 08:49:35;;;;;;;10.70;7.50;;;;;;;2.26;75.23;100741.29;1697522;83;21325;-81
2021/03/01 08:52:04;;;;;;;10.35;7.30;;;;;;;2.35;74.64;100749.36;1673809;85;21198;-81
2021/03/01 08:54:32;;;;;;;12.98;8.15;;;;;;;2.53;74.17;100748.57;1693800;84;21195;-80
2021/03/01 08:57:06;;;;;;;13.22;9.43;;;;;;;2.58;74.08;100751.94;1677465;84;21195;-83
2021/03/01 09:43:02;;;;;;;10.68;6.15;;;;;;;3.08;72.67;100806.17;1739082;78;21640;-80
2021/03/01 09:45:26;;;;;;;8.35;6.00;;;;;;;3.14;72.38;100804.31;1699992;83;21129;-78
2021/03/01 09:47:53;;;;;;;11.15;7.37;;;;;;;3.28;71.66;100806.15;1714059;83;21348;-78
2021/03/01 09:50:21;;;;;;;14.85;9.68;;;;;;;3.27;71.14;100814.45;1713477;83;21150;-78
2021/03/01 09:52:48;;;;;;;15.13;9.70;;;;;;;3.25;71.22;100809.70;1725850;83;21367;-77
2021/03/01 09:55:19;;;;;;;21.10;13.78;;;;;;;3.22;71.22;100808.91;1713024;83;21234;-79
2021/03/01 09:57:47;;;;;;;21.68;12.07;;;;;;;3.26;71.57;100817.95;1723466;83;21186;-78
2021/03/01 10:00:26;;;;;;;20.40;11.65;;;;;;;3.44;71.42;100820.59;1731382;81;21226;-82
2021/03/01 10:13:51;;;;;;;18.25;11.48;;;;;;;3.61;70.68;100807.56;1842959;76;22850;-80
2021/03/01 10:16:31;;;;;;;17.57;8.70;;;;;;;3.65;70.64;100807.88;1767597;79;21622;-80
2021/03/01 10:19:19;;;;;;;10.95;6.87;;;;;;;3.84;70.12;100806.13;1748584;81;21154;-82
2021/03/01 10:21:49;;;;;;;10.10;6.53;;;;;;;3.77;69.74;100796.25;1776480;79;21195;-83
2021/03/01 10:24:18;;;;;;;12.47;7.97;;;;;;;3.67;69.71;100800.88;1767427;80;21701;-83
2021/03/01 10:26:57;;;;;;;10.08;6.87;;;;;;;3.64;69.62;100795.70;1770301;80;21272;-82
2021/03/01 10:29:40;;;;;;;8.35;5.67;;;;;;;3.67;69.24;100794.33;1761858;80;21171;-86
2021/03/01 11:01:09;;;;;;;21.05;11.55;;;;;;;4.50;66.14;100797.81;1772683;78;21825;-84
2021/03/01 11:03:37;;;;;;;17.25;8.80;;;;;;;4.50;66.06;100802.17;1740549;81;21150;-84
2021/03/01 11:06:06;;;;;;;22.67;10.23;;;;;;;4.43;66.04;100806.27;1764771;80;21195;-85
2021/03/01 11:08:34;;;;;;;16.60;9.23;;;;;;;4.39;66.26;100802.03;1743414;80;21659;-84
2021/03/01 11:11:01;;;;;;;13.60;8.73;;;;;;;4.35;66.65;100804.33;1752938;81;21633;-84
2021/03/01 11:13:28;;;;;;;9.33;6.00;;;;;;;4.36;66.97;100804.74;1769897;80;21166;-83
2021/03/01 11:15:56;;;;;;;11.03;7.53;;;;;;;4.38;66.10;100804.23;1779540;80;21179;-83
2021/03/01 11:18:25;;;;;;;11.85;7.87;;;;;;;4.23;66.47;100803.34;1765403;80;21099;-84
2021/03/01 11:20:53;;;;;;;13.32;7.78;;;;;;;4.09;67.22;100801.97;1768555;80;21192;-84
2021/03/01 11:23:20;;;;;;;9.78;6.40;;;;;;;3.93;67.77;100800.66;1754552;80;21217;-86
2021/03/01 11:25:47;;;;;;;9.33;6.08;;;;;;;3.80;68.08;100801.42;1782263;80;21190;-84
2021/03/01 11:28:15;;;;;;;12.63;6.70;;;;;;;3.70;68.43;100802.09;1783025;80;21652;-83
2021/03/01 11:30:43;;;;;;;14.60;7.28;;;;;;;3.79;68.33;100804.08;1752303;81;21122;-86
2021/03/01 11:33:11;;;;;;;13.35;7.55;;;;;;;3.83;68.17;100808.33;1765507;81;21189;-86
2021/03/01 11:35:38;;;;;;;18.82;9.23;;;;;;;3.76;68.28;100813.72;1760747;81;21595;-85
2021/03/01 11:38:07;;;;;;;13.68;7.05;;;;;;;3.74;68.68;100807.65;1726977;82;21196;-83
2021/03/01 11:40:34;;;;;;;19.07;10.15;;;;;;;3.71;68.56;100810.36;1788444;80;22235;-84
2021/03/01 11:43:02;;;;;;;13.62;8.23;;;;;;;3.70;68.81;100808.62;1714935;81;21195;-87
2021/03/01 11:45:30;;;;;;;14.18;7.70;;;;;;;3.69;68.77;100819.14;1719980;82;21213;-84
2021/03/01 11:47:58;;;;;;;11.85;7.20;;;;;;;3.81;68.19;100814.04;1784927;80;21686;-83
2021/03/01 11:50:28;;;;;;;11.63;7.03;;;;;;;3.83;68.15;100807.02;1758968;81;21182;-82
2021/03/01 11:52:55;;;;;;;9.83;6.47;;;;;;;3.76;69.30;100808.48;1762849;81;21202;-84
2021/03/01 11:55:22;;;;;;;8.50;6.33;;;;;;;3.71;69.85;100806.86;1727049;81;21225;-83
2021/03/01 11:57:49;;;;;;;10.38;6.37;;;;;;;3.64;69.96;100810.09;1745216;81;21412;-84
2021/03/01 12:00:18;;;;;;;11.63;7.35;;;;;;;3.62;70.14;100813.20;1730288;81;21196;-86
2021/03/01 12:02:47;;;;;;;11.43;7.47;;;;;;;3.71;70.02;100811.66;1768750;80;21146;-85
2021/03/01 12:05:15;;;;;;;9.18;6.12;;;;;;;3.90;69.71;100809.87;1785075;80;21210;-82
2021/03/01 12:07:44;;;;;;;8.28;6.35;;;;;;;3.86;69.50;100805.63;1757522;81;21156;-85
2021/03/01 12:10:12;;;;;;;8.93;5.75;;;;;;;3.73;69.57;100811.19;1745661;80;21202;-83
2021/03/01 12:12:39;;;;;;;9.13;5.90;;;;;;;3.61;69.58;100811.02;1791848;80;21217;-84
2021/03/01 12:15:07;;;;;;;10.10;6.15;;;;;;;3.50;69.76;100813.49;1771548;80;21199;-88
2021/03/01 12:17:35;;;;;;;12.07;8.08;;;;;;;3.39;69.96;100810.69;1755315;80;21160;-86
2021/03/01 12:20:04;;;;;;;9.35;6.12;;;;;;;3.39;70.62;100815.92;1765067;80;22388;-84
2021/03/01 12:22:31;;;;;;;10.03;6.10;;;;;;;3.34;71.08;100811.24;1745075;81;21180;-84
2021/03/01 12:24:59;;;;;;;9.53;5.75;;;;;;;3.13;72.50;100823.03;1773230;80;21146;-85
2021/03/01 12:27:26;;;;;;;8.98;5.70;;;;;;;2.85;73.36;100822.78;1770386;80;21186;-85
2021/03/01 12:29:54;;;;;;;9.38;6.00;;;;;;;2.70;73.87;100827.44;1778889;80;21711;-84
2021/03/01 12:32:21;;;;;;;10.13;5.70;;;;;;;2.70;74.11;100828.75;1785255;80;21163;-84
2021/03/01 12:34:51;;;;;;;8.88;6.03;;;;;;;2.59;74.67;100832.02;1792078;80;21623;-85
2021/03/01 12:37:18;;;;;;;9.45;5.83;;;;;;;2.50;75.16;100834.36;1759972;80;21223;-86
2021/03/01 12:39:45;;;;;;;8.43;5.80;;;;;;;2.45;75.51;100839.66;1770339;79;21121;-84
2021/03/01 12:42:13;;;;;;;11.30;7.45;;;;;;;2.62;75.44;100835.86;1744519;81;21171;-85
2021/03/01 12:44:40;;;;;;;14.38;8.25;;;;;;;2.71;75.32;100830.47;1759307;80;21205;-85
2021/03/01 12:47:07;;;;;;;11.90;8.88;;;;;;;2.72;75.47;100835.23;1760852;80;21186;-85
2021/03/01 12:49:37;;;;;;;15.15;9.00;;;;;;;2.72;75.62;100840.46;1763274;80;21201;-84
2021/03/01 12:52:05;;;;;;;14.58;9.40;;;;;;;2.70;75.63;100836.58;1779956;80;21138;-85
2021/03/01 12:54:33;;;;;;;14.60;9.23;;;;;;;2.81;75.48;100834.19;1776674;80;21576;-85
2021/03/01 12:57:00;;;;;;;14.53;10.78;;;;;;;2.97;75.33;100849.97;1779044;80;21166;-84
2021/03/01 12:59:29;;;;;;;17.48;11.15;;;;;;;2.95;75.39;100845.20;1784073;80;21210;-85
2021/03/01 13:01:57;;;;;;;15.68;10.23;;;;;;;2.92;75.45;100851.82;1785703;80;21175;-86
2021/03/01 13:04:26;;;;;;;14.78;9.43;;;;;;;2.92;75.53;100840.91;1745415;80;21174;-84
2021/03/01 13:06:53;;;;;;;16.32;10.78;;;;;;;3.00;75.40;100840.74;1781487;80;21198;-86
2021/03/01 13:09:21;;;;;;;15.05;10.00;;;;;;;3.22;74.99;100842.89;1767816;80;21122;-85
2021/03/01 13:11:50;;;;;;;13.43;9.03;;;;;;;3.25;74.73;100835.00;1780263;80;21167;-85
2021/03/01 13:14:17;;;;;;;15.08;10.93;;;;;;;3.20;74.77;100847.31;1746093;81;21210;-86
2021/03/01 13:16:45;;;;;;;17.52;12.28;;;;;;;3.18;74.73;100838.62;1746638;81;21340;-84
2021/03/01 13:19:12;;;;;;;16.30;11.55;;;;;;;3.20;74.75;100852.53;1751445;81;21166;-86
2021/03/01 13:21:39;;;;;;;21.30;13.43;;;;;;;3.25;74.45;100842.84;1766723;80;21620;-83
2021/03/01 13:24:07;;;;;;;18.35;11.00;;;;;;;3.34;73.91;100842.62;1790388;79;21183;-87
2021/03/01 13:26:35;;;;;;;22.00;14.18;;;;;;;3.28;73.88;100851.45;1778542;80;21166;-86
2021/03/01 13:29:02;;;;;;;23.40;14.87;;;;;;;3.20;73.94;100840.31;1758980;80;21159;-87
2021/03/01 13:31:31;;;;;;;20.62;12.47;;;;;;;3.19;73.84;100842.97;1789205;80;21130;-88
2021/03/01 13:33:58;;;;;;;24.70;14.33;;;;;;;3.14;73.62;100847.44;1774771;80;21154;-87
2021/03/01 13:36:26;;;;;;;23.92;15.28;;;;;;;3.20;73.55;100853.38;1782753;80;21579;-86
2021/03/01 13:38:53;;;;;;;23.73;13.65;;;;;;;3.29;73.29;100852.33;1768432;80;21176;-80
2021/03/01 13:41:21;;;;;;;20.05;12.98;;;;;;;3.24;73.46;100857.64;1734993;81;21583;-85
2021/03/01 13:43:48;;;;;;;15.55;10.65;;;;;;;3.18;73.59;100854.31;1758938;81;21207;-83
2021/03/01 13:46:20;;;;;;;15.85;10.88;;;;;;;3.11;73.74;100847.91;1740645;81;21225;-82
2021/03/01 13:48:48;;;;;;;16.90;10.28;;;;;;;3.11;73.86;100849.22;1748429;81;21177;-85
2021/03/01 13:51:16;;;;;;;19.70;13.15;;;;;;;3.32;73.48;100854.01;1746391;82;21240;-85
2021/03/01 13:53:46;;;;;;;23.00;14.10;;;;;;;3.38;73.34;100842.95;1752457;81;21226;-85
2021/03/01 13:56:14;;;;;;;23.38;15.30;;;;;;;3.35;73.39;100844.34;1786213;80;21107;-82
2021/03/01 13:58:42;;;;;;;21.87;14.30;;;;;;;3.34;73.52;100841.74;1774346;80;21140;-82
2021/03/01 14:01:10;;;;;;;18.70;11.70;;;;;;;3.34;73.51;100837.81;1730253;82;21677;-84
2021/03/01 14:03:38;;;;;;;13.53;8.88;;;;;;;3.36;73.65;100840.81;1777747;80;21634;-83
2021/03/01 14:06:06;;;;;;;13.70;9.35;;;;;;;3.51;73.59;100832.22;1783114;80;21277;-83
2021/03/01 14:08:34;;;;;;;15.88;9.95;;;;;;;3.73;73.20;100834.73;1782126;80;21162;-86
2021/03/01 14:11:02;;;;;;;13.38;9.50;;;;;;;3.75;73.09;100844.70;1750041;81;21198;-87
2021/03/01 14:13:30;;;;;;;15.53;9.15;;;;;;;3.73;73.14;100841.70;1763835;81;21674;-85
2021/03/01 14:15:57;;;;;;;13.40;8.13;;;;;;;3.66;73.03;100840.13;1778710;80;21182;-85
2021/03/01 14:18:26;;;;;;;7.28;5.08;;;;;;;3.56;72.95;100835.59;1789180;80;21335;-85
2021/03/01 14:20:56;;;;;;;9.20;5.25;;;;;;;3.53;72.55;100837.83;1783980;80;21202;-87
2021/03/01 14:23:24;;;;;;;8.00;5.20;;;;;;;3.53;72.20;100846.98;1790011;80;21213;-86
2021/03/01 14:25:52;;;;;;;7.47;4.53;;;;;;;3.38;72.44;100831.19;1734430;81;21585;-86
2021/03/01 14:28:23;;;;;;;8.50;5.62;;;;;;;3.21;72.77;100835.93;1781225;80;21174;-85
2021/03/01 14:30:52;;;;;;;7.62;5.20;;;;;;;3.09;73.09;100836.61;1768193;80;21193;-86
2021/03/01 14:33:19;;;;;;;14.38;6.70;;;;;;;3.04;73.27;100834.55;1781165;80;21189;-85
2021/03/01 14:35:47;;;;;;;8.50;5.47;;;;;;;3.18;73.02;100825.56;1785848;80;21176;-85
2021/03/01 14:38:16;;;;;;;8.18;5.80;;;;;;;3.15;72.97;100829.56;1769394;80;21158;-81
2021/03/01 14:40:44;;;;;;;9.23;5.42;;;;;;;3.00;73.17;100826.83;1772292;80;21193;-84
2021/03/01 14:43:13;;;;;;;9.95;5.22;;;;;;;2.91;73.46;100822.20;1770879;80;21179;-86
2021/03/01 14:45:40;;;;;;;8.08;5.10;;;;;;;2.85;73.60;100830.19;1765066;80;21157;-85
2021/03/01 14:48:10;;;;;;;9.13;5.00;;;;;;;2.97;73.51;100829.48;1743588;81;21521;-84
2021/03/01 14:50:37;;;;;;;6.90;4.95;;;;;;;3.03;73.50;100831.98;1764349;80;21635;-85
2021/03/01 14:53:06;;;;;;;7.92;5.25;;;;;;;2.92;73.65;100825.23;1790308;80;21130;-86
2021/03/01 14:55:33;;;;;;;8.68;5.97;;;;;;;2.84;73.87;100829.77;1733682;82;21186;-85
2021/03/01 14:58:00;;;;;;;6.92;4.42;;;;;;;2.78;74.06;100830.74;1751324;82;21194;-86
2021/03/01 15:00:28;;;;;;;5.95;4.05;;;;;;;2.77;73.89;100835.55;1723836;81;21348;-85
2021/03/01 15:02:58;;;;;;;6.08;4.00;;;;;;;2.81;73.37;100842.88;1749350;81;21180;-86
2021/03/01 15:05:28;;;;;;;5.05;3.50;;;;;;;2.74;73.45;100836.92;1753772;81;21295;-85
2021/03/01 15:07:55;;;;;;;4.47;3.52;;;;;;;2.60;73.74;100849.41;1744275;80;21158;-86
2021/03/01 15:10:23;;;;;;;4.45;3.33;;;;;;;2.51;74.16;100854.83;1750503;82;21163;-85
2021/03/01 15:12:50;;;;;;;5.87;3.05;;;;;;;2.48;74.30;100853.56;1755451;81;21670;-85
2021/03/01 15:15:18;;;;;;;4.87;3.00;;;;;;;2.58;74.21;100861.63;1751575;81;21169;-84
2021/03/01 15:17:45;;;;;;;4.62;3.40;;;;;;;2.52;74.47;100856.09;1747072;81;21200;-83
2021/03/01 15:20:13;;;;;;;6.15;3.58;;;;;;;2.43;74.78;100858.86;1740832;81;21621;-84
2021/03/01 15:22:41;;;;;;;4.53;3.30;;;;;;;2.34;74.95;100875.58;1723422;82;21153;-84
2021/03/01 15:25:09;;;;;;;5.28;3.58;;;;;;;2.32;75.07;100874.73;1788981;80;21603;-84
2021/03/01 15:27:37;;;;;;;5.35;3.90;;;;;;;2.47;74.75;100873.60;1790350;80;21210;-86
2021/03/01 15:30:06;;;;;;;6.67;4.25;;;;;;;2.46;74.64;100872.72;1750945;81;21201;-85
2021/03/01 15:32:35;;;;;;;5.65;3.60;;;;;;;2.40;74.70;100868.91;1746472;81;21293;-87
2021/03/01 15:35:05;;;;;;;5.87;4.33;;;;;;;2.35;74.81;100879.89;1736241;81;21322;-86
2021/03/01 15:37:33;;;;;;;6.67;3.87;;;;;;;2.31;74.86;100888.67;1758220;81;21253;-86